createdAt,value
2022-10-09T00:03:13.238Z,75.28
2022-10-09T00:08:17.257Z,75.08
2022-10-09T00:13:20.082Z,74.97
2022-10-09T00:18:22.889Z,75.30
2022-10-09T00:23:27.279Z,75.38
2022-10-09T00:28:35.304Z,75.22
2022-10-09T00:33:40.755Z,75.12
2022-10-09T00:38:44.867Z,75.20
2022-10-09T00:43:49.910Z,75.08
2022-10-09T00:48:58.046Z,75.33
2022-10-09T00:54:03.300Z,75.65
2022-10-09T00:59:06.526Z,75.66
2022-10-09T01:04:09.343Z,75.86
2022-10-09T01:09:16.242Z,75.47
2022-10-09T01:14:23.294Z,75.34
2022-10-09T01:19:45.971Z,75.46
2022-10-09T01:24:54.868Z,75.54
2022-10-09T01:30:02.876Z,75.52
2022-10-09T01:35:06.956Z,75.49
2022-10-09T01:40:10.553Z,75.56
2022-10-09T01:45:14.896Z,75.60
2022-10-09T01:50:23.679Z,75.45
2022-10-09T01:55:37.405Z,75.55
2022-10-09T02:00:44.572Z,75.61
2022-10-09T02:05:48.880Z,75.57
2022-10-09T02:10:54.554Z,75.60
2022-10-09T02:16:02.828Z,75.63
2022-10-09T02:21:09.974Z,75.46
2022-10-09T02:26:13.838Z,75.74
2022-10-09T02:31:21.360Z,75.81
2022-10-09T02:36:24.081Z,75.40
2022-10-09T02:41:27.611Z,75.91
2022-10-09T02:46:31.894Z,75.74
2022-10-09T02:51:34.681Z,75.90
2022-10-09T02:56:39.173Z,75.78
2022-10-09T03:01:43.386Z,75.75
2022-10-09T03:06:46.173Z,75.60
2022-10-09T03:11:48.850Z,75.52
2022-10-09T03:16:52.941Z,75.19
2022-10-09T03:21:55.664Z,75.45
2022-10-09T03:26:58.289Z,75.32
2022-10-09T03:32:02.421Z,75.83
2022-10-09T03:37:05.214Z,75.39
2022-10-09T03:42:07.889Z,75.51
2022-10-09T03:47:11.847Z,75.37
2022-10-09T03:52:14.483Z,75.78
2022-10-09T03:57:17.100Z,75.62
2022-10-09T04:02:21.105Z,75.37
2022-10-09T04:07:23.791Z,75.37
2022-10-09T04:12:26.424Z,75.84
2022-10-09T04:17:30.411Z,75.64
2022-10-09T04:22:33.108Z,76.00
2022-10-09T04:27:35.799Z,75.83
2022-10-09T04:32:39.733Z,75.41
2022-10-09T04:37:42.360Z,75.96
2022-10-09T04:42:45.070Z,76.06
2022-10-09T04:47:49.051Z,75.93
2022-10-09T04:52:52.230Z,75.92
2022-10-09T04:57:55.102Z,75.87
2022-10-09T05:02:59.073Z,75.79
2022-10-09T05:08:01.719Z,75.77
2022-10-09T05:13:04.622Z,75.64
2022-10-09T05:18:08.629Z,75.77
2022-10-09T05:23:11.338Z,75.75
2022-10-09T05:28:14.044Z,76.04
2022-10-09T05:33:18.501Z,76.08
2022-10-09T05:38:21.613Z,75.82
2022-10-09T05:43:26.649Z,75.75
2022-10-09T05:48:30.656Z,75.31
2022-10-09T05:53:33.421Z,75.29
2022-10-09T05:58:36.052Z,75.34
2022-10-09T06:03:40.208Z,75.09
2022-10-09T06:08:42.958Z,75.06
2022-10-09T06:13:46.210Z,75.05
2022-10-09T06:18:50.333Z,74.74
2022-10-09T06:23:54.277Z,74.68
2022-10-09T06:28:57.498Z,74.61
2022-10-09T06:34:03.198Z,74.82
2022-10-09T06:39:07.470Z,74.52
2022-10-09T06:44:16.313Z,74.37
2022-10-09T06:49:20.799Z,74.42
2022-10-09T06:54:23.637Z,74.56
2022-10-09T06:59:26.549Z,74.64
2022-10-09T07:04:30.919Z,74.64
2022-10-09T07:09:33.715Z,74.22
2022-10-09T07:14:36.326Z,74.37
2022-10-09T07:19:40.608Z,74.19
2022-10-09T07:24:43.274Z,74.51
2022-10-09T07:29:46.396Z,74.12
2022-10-09T07:34:50.441Z,74.01
2022-10-09T07:39:53.115Z,74.31
2022-10-09T07:44:55.719Z,74.48
2022-10-09T07:49:59.730Z,74.48
2022-10-09T07:55:02.666Z,74.23
2022-10-09T08:00:06.294Z,74.47
2022-10-09T08:05:16.594Z,74.57
2022-10-09T08:10:19.245Z,74.32
2022-10-09T08:15:21.866Z,74.10
2022-10-09T08:20:25.904Z,74.13
2022-10-09T08:25:29.106Z,74.10
2022-10-09T08:30:32.098Z,73.72
2022-10-09T08:35:36.085Z,73.77
2022-10-09T08:40:44.051Z,73.64
2022-10-09T08:45:47.735Z,73.63
2022-10-09T08:50:53.509Z,73.54
2022-10-09T08:55:57.551Z,73.78
2022-10-09T09:01:02.808Z,73.46
2022-10-09T09:06:10.371Z,73.19
2022-10-09T09:11:22.016Z,72.58
2022-10-09T09:16:32.037Z,72.46
2022-10-09T09:21:41.916Z,72.35
2022-10-09T09:26:45.051Z,71.99
2022-10-09T09:31:49.051Z,71.90
2022-10-09T09:36:55.845Z,72.07
2022-10-09T09:42:01.901Z,72.02
2022-10-09T09:47:04.617Z,71.94
2022-10-09T09:52:09.945Z,71.74
2022-10-09T09:57:17.037Z,71.64
2022-10-09T10:02:25.192Z,71.53
2022-10-09T10:07:30.740Z,71.25
2022-10-09T10:12:33.513Z,71.09
2022-10-09T10:17:36.729Z,70.46
2022-10-09T10:22:40.840Z,69.88
2022-10-09T10:27:43.903Z,69.29
2022-10-09T10:32:52.172Z,69.04
2022-10-09T10:38:00.129Z,68.40
2022-10-09T10:43:21.453Z,68.26
2022-10-09T10:48:26.823Z,67.44
2022-10-09T10:53:41.323Z,66.67
2022-10-09T10:58:47.984Z,66.20
2022-10-09T11:04:05.471Z,65.50
2022-10-09T11:09:14.022Z,64.25
2022-10-09T11:14:29.730Z,60.29
2022-10-09T11:19:47.039Z,51.51
2022-10-09T11:25:02.293Z,46.05
2022-10-09T11:30:09.409Z,37.48
2022-10-09T11:35:17.113Z,31.39
2022-10-09T11:40:24.523Z,32.63
2022-10-09T11:45:30.677Z,37.55
2022-10-09T11:50:40.618Z,42.54
2022-10-09T11:55:44.744Z,44.68
2022-10-09T12:00:50.559Z,41.86
2022-10-09T12:05:53.525Z,32.83
2022-10-09T12:10:59.438Z,28.19
2022-10-09T12:16:02.281Z,27.74
2022-10-09T12:21:06.710Z,26.97
2022-10-09T12:26:11.995Z,31.55
2022-10-09T12:31:18.772Z,34.30
2022-10-09T12:36:25.219Z,37.79
2022-10-09T12:41:31.599Z,40.84
2022-10-09T12:46:36.057Z,42.10
2022-10-09T12:51:38.935Z,44.00
2022-10-09T12:56:43.315Z,43.52
2022-10-09T13:01:46.710Z,43.95
2022-10-09T13:06:51.046Z,44.85
2022-10-09T13:11:57.750Z,47.20
2022-10-09T13:17:00.426Z,48.78
2022-10-09T13:22:21.554Z,48.98
2022-10-09T13:27:27.837Z,49.17
2022-10-09T13:32:30.948Z,49.65
2022-10-09T13:37:33.644Z,50.38
2022-10-09T13:42:38.252Z,50.50
2022-10-09T13:47:40.892Z,49.90
2022-10-09T13:52:43.837Z,49.52
2022-10-09T13:57:48.739Z,50.04
2022-10-09T14:02:51.684Z,50.67
2022-10-09T14:07:55.241Z,51.53
2022-10-09T14:12:59.623Z,52.27
2022-10-09T14:18:02.258Z,52.48
2022-10-09T14:23:04.918Z,52.58
2022-10-09T14:28:09.143Z,52.62
2022-10-09T14:33:12.607Z,52.48
2022-10-09T14:38:15.391Z,52.41
2022-10-09T14:43:20.018Z,52.30
2022-10-09T14:48:22.630Z,52.00
2022-10-09T14:53:26.808Z,51.54
2022-10-09T14:58:33.142Z,50.54
2022-10-09T15:03:36.763Z,48.66
2022-10-09T15:08:41.631Z,47.70
2022-10-09T15:13:46.144Z,42.16
2022-10-09T15:18:50.281Z,38.58
2022-10-09T15:23:54.393Z,36.28
2022-10-09T15:28:58.610Z,33.87
2022-10-09T15:34:02.130Z,32.94
2022-10-09T15:39:07.186Z,35.27
2022-10-09T15:44:15.424Z,40.51
2022-10-09T15:49:18.525Z,43.90
2022-10-09T15:54:21.241Z,47.15
2022-10-09T15:59:25.762Z,49.83
2022-10-09T16:04:28.556Z,51.28
2022-10-09T16:09:33.377Z,52.19
2022-10-09T16:14:38.323Z,52.75
2022-10-09T16:19:41.018Z,53.70
2022-10-09T16:24:43.702Z,54.32
2022-10-09T16:29:48.282Z,54.94
2022-10-09T16:34:51.015Z,55.31
2022-10-09T16:39:53.717Z,55.46
2022-10-09T16:44:58.378Z,55.83
2022-10-09T16:50:01.303Z,56.22
2022-10-09T16:55:04.093Z,56.69
2022-10-09T17:00:09.691Z,56.80
2022-10-09T17:05:12.341Z,57.02
2022-10-09T17:10:14.969Z,57.32
2022-10-09T17:15:19.088Z,57.48
2022-10-09T17:20:22.535Z,57.64
2022-10-09T17:25:25.158Z,57.71
2022-10-09T17:30:29.110Z,58.10
2022-10-09T17:35:31.766Z,58.18
2022-10-09T17:40:38.680Z,58.45
2022-10-09T17:45:43.656Z,58.65
2022-10-09T17:50:53.258Z,58.79
2022-10-09T17:55:57.457Z,58.85
2022-10-09T18:01:05.655Z,58.97
2022-10-09T18:06:10.150Z,59.01
2022-10-09T18:11:15.144Z,59.10
2022-10-09T18:16:22.451Z,59.15
2022-10-09T18:21:25.231Z,59.24
2022-10-09T18:26:27.853Z,59.31
2022-10-09T18:31:32.058Z,59.37
2022-10-09T18:36:34.945Z,59.47
2022-10-09T18:41:38.096Z,59.65
2022-10-09T18:46:44.806Z,59.64
2022-10-09T18:51:47.971Z,59.84
2022-10-09T18:56:50.787Z,59.85
2022-10-09T19:01:54.746Z,60.03
2022-10-09T19:06:57.387Z,60.21
2022-10-09T19:12:00.091Z,60.13
2022-10-09T19:17:04.303Z,60.30
2022-10-09T19:22:09.730Z,60.38
2022-10-09T19:27:15.754Z,60.40
2022-10-09T19:32:23.582Z,60.66
2022-10-09T19:37:29.683Z,60.72
2022-10-09T19:42:32.730Z,60.74
2022-10-09T19:47:37.147Z,60.90
2022-10-09T19:52:39.835Z,61.02
2022-10-09T19:57:42.650Z,61.08
2022-10-09T20:02:46.824Z,60.97
2022-10-09T20:07:49.775Z,61.37
2022-10-09T20:12:52.953Z,61.47
2022-10-09T20:17:57.047Z,61.44
2022-10-09T20:22:59.940Z,61.66
2022-10-09T20:28:02.571Z,61.71
2022-10-09T20:33:06.606Z,61.57
2022-10-09T20:38:09.335Z,61.64
2022-10-09T20:43:13.382Z,61.68
2022-10-09T20:48:17.554Z,61.75
2022-10-09T20:53:20.257Z,61.67
2022-10-09T20:58:22.845Z,62.00
2022-10-09T21:03:26.919Z,62.19
2022-10-09T21:08:29.710Z,62.60
2022-10-09T21:13:32.353Z,62.80
2022-10-09T21:18:37.096Z,63.13
2022-10-09T21:23:40.395Z,63.33
2022-10-09T21:28:43.648Z,63.40
2022-10-09T21:33:48.161Z,63.27
2022-10-09T21:38:50.796Z,63.41
2022-10-09T21:43:53.405Z,63.62
2022-10-09T21:48:57.758Z,64.04
2022-10-09T21:54:00.587Z,64.25
2022-10-09T21:59:03.407Z,64.74
2022-10-09T22:04:07.412Z,64.81
2022-10-09T22:09:10.156Z,65.10
2022-10-09T22:14:13.172Z,65.36
2022-10-09T22:19:20.938Z,65.35
2022-10-09T22:24:28.375Z,65.68
2022-10-09T22:29:31.802Z,65.46
2022-10-09T22:34:35.789Z,65.45
2022-10-09T22:39:38.486Z,65.64
2022-10-09T22:44:41.138Z,65.62
2022-10-09T22:49:45.182Z,65.73
2022-10-09T22:54:47.816Z,65.95
2022-10-09T22:59:50.402Z,66.10
2022-10-09T23:04:54.521Z,66.07
2022-10-09T23:09:57.379Z,66.19
2022-10-09T23:15:00.227Z,66.29
2022-10-09T23:20:04.583Z,66.27
2022-10-09T23:25:08.294Z,66.24
2022-10-09T23:30:11.965Z,66.29
2022-10-09T23:35:16.086Z,66.18
2022-10-09T23:40:19.184Z,66.37
2022-10-09T23:45:21.860Z,66.56
2022-10-09T23:50:26.044Z,66.37
2022-10-09T23:55:28.694Z,66.72
